sensor_id;sensor_type;location;lat;lon;timestamp;pressure;altitude;pressure_sealevel;temperature;humidity
24045;BME280;26257;49.442;8.422;2023-01-29T00:01:55;101787.63;;;3.19;69.30
24045;BME280;26257;49.442;8.422;2023-01-29T00:04:20;101774.47;;;3.02;70.78
24045;BME280;26257;49.442;8.422;2023-01-29T00:06:46;101773.72;;;2.90;71.37
24045;BME280;26257;49.442;8.422;2023-01-29T00:09:11;101781.22;;;2.99;71.06
24045;BME280;26257;49.442;8.422;2023-01-29T00:11:38;101790.56;;;2.95;70.91
24045;BME280;26257;49.442;8.422;2023-01-29T00:14:03;101778.28;;;3.07;70.25
24045;BME280;26257;49.442;8.422;2023-01-29T00:16:29;101762.03;;;2.84;71.20
24045;BME280;26257;49.442;8.422;2023-01-29T00:18:54;101765.31;;;3.09;70.71
24045;BME280;26257;49.442;8.422;2023-01-29T00:21:21;101761.06;;;2.96;71.04
24045;BME280;26257;49.442;8.422;2023-01-29T00:23:48;101756.50;;;2.79;71.03
24045;BME280;26257;49.442;8.422;2023-01-29T00:26:14;101754.47;;;3.03;71.51
24045;BME280;26257;49.442;8.422;2023-01-29T00:28:40;101760.66;;;2.90;71.38
24045;BME280;26257;49.442;8.422;2023-01-29T00:31:14;101765.78;;;2.61;73.27
24045;BME280;26257;49.442;8.422;2023-01-29T00:33:40;101762.47;;;2.36;74.23
24045;BME280;26257;49.442;8.422;2023-01-29T00:36:09;101766.06;;;2.38;73.82
24045;BME280;26257;49.442;8.422;2023-01-29T00:38:35;101766.06;;;2.38;74.55
24045;BME280;26257;49.442;8.422;2023-01-29T00:41:11;101780.94;;;2.26;75.55
24045;BME280;26257;49.442;8.422;2023-01-29T00:43:56;101771.69;;;2.31;76.06
24045;BME280;26257;49.442;8.422;2023-01-29T00:46:41;101764.88;;;2.20;77.89
24045;BME280;26257;49.442;8.422;2023-01-29T00:49:07;101763.47;;;2.25;78.07
24045;BME280;26257;49.442;8.422;2023-01-29T00:51:33;101771.63;;;2.16;77.12
24045;BME280;26257;49.442;8.422;2023-01-29T00:53:59;101779.50;;;2.44;78.36
24045;BME280;26257;49.442;8.422;2023-01-29T00:56:29;101777.44;;;2.12;78.61
24045;BME280;26257;49.442;8.422;2023-01-29T00:58:58;101778.91;;;2.22;79.11
24045;BME280;26257;49.442;8.422;2023-01-29T01:01:24;101772.50;;;2.30;78.67
24045;BME280;26257;49.442;8.422;2023-01-29T01:04:25;101784.00;;;2.46;76.33
24045;BME280;26257;49.442;8.422;2023-01-29T01:06:50;101789.22;;;2.46;75.86
24045;BME280;26257;49.442;8.422;2023-01-29T01:09:15;101791.31;;;2.52;76.92
24045;BME280;26257;49.442;8.422;2023-01-29T01:11:59;101791.88;;;2.61;76.08
24045;BME280;26257;49.442;8.422;2023-01-29T01:14:25;101782.88;;;2.56;77.27
24045;BME280;26257;49.442;8.422;2023-01-29T01:16:50;101793.91;;;2.65;76.38
24045;BME280;26257;49.442;8.422;2023-01-29T01:19:16;101800.03;;;2.66;75.83
24045;BME280;26257;49.442;8.422;2023-01-29T01:21:41;101793.56;;;2.74;74.33
24045;BME280;26257;49.442;8.422;2023-01-29T01:24:12;101790.31;;;2.50;76.57
24045;BME280;26257;49.442;8.422;2023-01-29T01:26:38;101781.09;;;2.55;76.10
24045;BME280;26257;49.442;8.422;2023-01-29T01:29:03;101778.44;;;2.68;75.29
24045;BME280;26257;49.442;8.422;2023-01-29T01:31:29;101779.66;;;2.60;75.00
24045;BME280;26257;49.442;8.422;2023-01-29T01:33:54;101782.09;;;2.44;75.66
24045;BME280;26257;49.442;8.422;2023-01-29T01:36:20;101779.22;;;2.67;75.01
24045;BME280;26257;49.442;8.422;2023-01-29T01:38:46;101774.81;;;2.66;74.08
24045;BME280;26257;49.442;8.422;2023-01-29T01:41:17;101770.50;;;2.67;72.61
24045;BME280;26257;49.442;8.422;2023-01-29T01:43:55;101777.44;;;2.53;72.08
24045;BME280;26257;49.442;8.422;2023-01-29T01:46:22;101775.38;;;3.03;70.83
24045;BME280;26257;49.442;8.422;2023-01-29T01:48:53;101770.91;;;2.87;70.70
24045;BME280;26257;49.442;8.422;2023-01-29T01:51:22;101775.66;;;3.07;69.69
24045;BME280;26257;49.442;8.422;2023-01-29T01:53:57;101781.03;;;2.96;69.68
24045;BME280;26257;49.442;8.422;2023-01-29T01:56:29;101777.38;;;2.79;69.95
24045;BME280;26257;49.442;8.422;2023-01-29T01:59:04;101775.41;;;2.75;70.43
24045;BME280;26257;49.442;8.422;2023-01-29T02:01:32;101772.00;;;2.76;70.25
24045;BME280;26257;49.442;8.422;2023-01-29T02:04:01;101764.66;;;2.98;69.79
24045;BME280;26257;49.442;8.422;2023-01-29T02:06:46;101765.38;;;3.10;69.74
24045;BME280;26257;49.442;8.422;2023-01-29T02:09:51;101763.53;;;2.80;71.20
24045;BME280;26257;49.442;8.422;2023-01-29T02:12:17;101769.97;;;2.72;72.44
24045;BME280;26257;49.442;8.422;2023-01-29T02:14:43;101758.88;;;2.62;72.77
24045;BME280;26257;49.442;8.422;2023-01-29T02:17:14;101758.94;;;2.76;71.97
24045;BME280;26257;49.442;8.422;2023-01-29T02:22:45;101756.69;;;2.82;71.29
24045;BME280;26257;49.442;8.422;2023-01-29T02:28:39;101755.56;;;2.64;72.65
24045;BME280;26257;49.442;8.422;2023-01-29T02:34:11;101738.13;;;2.63;74.31
24045;BME280;26257;49.442;8.422;2023-01-29T02:36:49;101738.47;;;2.69;74.34
24045;BME280;26257;49.442;8.422;2023-01-29T02:42:00;101733.75;;;2.49;74.11
24045;BME280;26257;49.442;8.422;2023-01-29T02:47:20;101729.00;;;2.29;75.25
24045;BME280;26257;49.442;8.422;2023-01-29T02:49:55;101724.88;;;2.19;75.15
24045;BME280;26257;49.442;8.422;2023-01-29T02:52:35;101731.22;;;2.10;75.30
24045;BME280;26257;49.442;8.422;2023-01-29T02:55:28;101729.81;;;2.15;75.74
24045;BME280;26257;49.442;8.422;2023-01-29T02:57:58;101726.00;;;2.10;76.91
24045;BME280;26257;49.442;8.422;2023-01-29T03:00:31;101730.81;;;2.04;76.84
24045;BME280;26257;49.442;8.422;2023-01-29T03:03:26;101736.88;;;1.90;76.92
24045;BME280;26257;49.442;8.422;2023-01-29T03:08:58;101731.84;;;1.93;77.63
24045;BME280;26257;49.442;8.422;2023-01-29T03:11:29;101733.84;;;1.83;78.27
24045;BME280;26257;49.442;8.422;2023-01-29T03:14:03;101737.44;;;1.99;78.08
24045;BME280;26257;49.442;8.422;2023-01-29T03:19:11;101740.25;;;1.88;79.29
24045;BME280;26257;49.442;8.422;2023-01-29T03:21:50;101747.78;;;1.97;79.61
24045;BME280;26257;49.442;8.422;2023-01-29T03:27:13;101747.16;;;1.88;78.99
24045;BME280;26257;49.442;8.422;2023-01-29T03:29:59;101740.38;;;1.77;80.57
24045;BME280;26257;49.442;8.422;2023-01-29T03:32:45;101750.97;;;1.80;80.48
24045;BME280;26257;49.442;8.422;2023-01-29T03:35:13;101760.53;;;1.79;80.82
24045;BME280;26257;49.442;8.422;2023-01-29T03:37:46;101757.09;;;1.80;81.58
24045;BME280;26257;49.442;8.422;2023-01-29T03:40:13;101749.69;;;1.73;82.59
24045;BME280;26257;49.442;8.422;2023-01-29T03:43:11;101760.72;;;1.69;82.61
24045;BME280;26257;49.442;8.422;2023-01-29T03:45:53;101763.50;;;1.85;82.89
24045;BME280;26257;49.442;8.422;2023-01-29T03:48:40;101764.63;;;2.02;81.69
24045;BME280;26257;49.442;8.422;2023-01-29T03:59:16;101763.78;;;2.29;80.37
24045;BME280;26257;49.442;8.422;2023-01-29T04:02:18;101762.84;;;2.42;79.73
24045;BME280;26257;49.442;8.422;2023-01-29T04:04:47;101774.81;;;2.25;79.69
24045;BME280;26257;49.442;8.422;2023-01-29T04:07:18;101769.88;;;2.30;80.18
24045;BME280;26257;49.442;8.422;2023-01-29T04:10:03;101782.44;;;2.22;81.27
24045;BME280;26257;49.442;8.422;2023-01-29T04:12:35;101784.09;;;2.48;80.82
24045;BME280;26257;49.442;8.422;2023-01-29T04:15:04;101777.09;;;2.47;80.25
24045;BME280;26257;49.442;8.422;2023-01-29T04:17:38;101777.16;;;2.48;80.41
24045;BME280;26257;49.442;8.422;2023-01-29T04:35:58;101759.88;;;2.23;88.32
24045;BME280;26257;49.442;8.422;2023-01-29T04:41:36;101776.28;;;2.35;85.29
24045;BME280;26257;49.442;8.422;2023-01-29T04:52:46;101744.81;;;2.45;83.62
24045;BME280;26257;49.442;8.422;2023-01-29T04:55:27;101733.53;;;2.46;82.91
24045;BME280;26257;49.442;8.422;2023-01-29T04:58:06;101722.00;;;2.42;82.15
24045;BME280;26257;49.442;8.422;2023-01-29T05:00:43;101712.47;;;2.43;81.43
24045;BME280;26257;49.442;8.422;2023-01-29T05:03:14;101715.84;;;2.27;82.45
24045;BME280;26257;49.442;8.422;2023-01-29T05:05:42;101733.81;;;2.10;84.32
24045;BME280;26257;49.442;8.422;2023-01-29T05:08:11;101732.91;;;2.22;83.80
24045;BME280;26257;49.442;8.422;2023-01-29T05:10:38;101723.88;;;2.17;83.84
24045;BME280;26257;49.442;8.422;2023-01-29T05:13:05;101716.22;;;2.06;85.67
24045;BME280;26257;49.442;8.422;2023-01-29T05:15:38;101721.44;;;1.93;86.44
24045;BME280;26257;49.442;8.422;2023-01-29T05:18:04;101736.66;;;1.86;87.43
24045;BME280;26257;49.442;8.422;2023-01-29T05:20:35;101735.88;;;2.01;86.12
24045;BME280;26257;49.442;8.422;2023-01-29T05:23:02;101732.44;;;1.88;86.49
24045;BME280;26257;49.442;8.422;2023-01-29T05:25:30;101741.25;;;1.91;86.40
24045;BME280;26257;49.442;8.422;2023-01-29T05:27:57;101747.66;;;2.09;85.99
24045;BME280;26257;49.442;8.422;2023-01-29T05:30:45;101736.22;;;2.07;85.60
24045;BME280;26257;49.442;8.422;2023-01-29T05:33:23;101746.78;;;2.08;85.83
24045;BME280;26257;49.442;8.422;2023-01-29T05:35:49;101757.78;;;2.04;85.11
24045;BME280;26257;49.442;8.422;2023-01-29T05:38:18;101760.50;;;2.06;87.10
24045;BME280;26257;49.442;8.422;2023-01-29T05:40:44;101762.28;;;2.20;86.59
24045;BME280;26257;49.442;8.422;2023-01-29T05:43:18;101763.91;;;2.18;86.50
24045;BME280;26257;49.442;8.422;2023-01-29T05:46:04;101757.28;;;2.10;87.55
24045;BME280;26257;49.442;8.422;2023-01-29T05:48:29;101757.69;;;2.16;87.14
24045;BME280;26257;49.442;8.422;2023-01-29T05:51:00;101753.25;;;2.15;87.56
24045;BME280;26257;49.442;8.422;2023-01-29T05:53:27;101758.19;;;2.10;89.53
24045;BME280;26257;49.442;8.422;2023-01-29T05:55:53;101750.97;;;2.06;96.58
24045;BME280;26257;49.442;8.422;2023-01-29T05:58:21;101756.06;;;2.18;91.69
24045;BME280;26257;49.442;8.422;2023-01-29T06:00:47;101744.84;;;2.32;90.52
24045;BME280;26257;49.442;8.422;2023-01-29T06:03:12;101748.41;;;2.47;87.21
24045;BME280;26257;49.442;8.422;2023-01-29T06:05:38;101754.81;;;2.52;86.24
24045;BME280;26257;49.442;8.422;2023-01-29T06:08:04;101745.59;;;2.44;86.23
24045;BME280;26257;49.442;8.422;2023-01-29T06:10:29;101741.28;;;2.72;85.32
24045;BME280;26257;49.442;8.422;2023-01-29T06:12:55;101740.47;;;2.73;84.30
24045;BME280;26257;49.442;8.422;2023-01-29T06:15:20;101733.13;;;2.81;82.98
24045;BME280;26257;49.442;8.422;2023-01-29T06:17:46;101738.63;;;2.58;84.03
24045;BME280;26257;49.442;8.422;2023-01-29T06:20:11;101739.03;;;2.23;86.55
24045;BME280;26257;49.442;8.422;2023-01-29T06:22:37;101764.59;;;2.56;87.36
24045;BME280;26257;49.442;8.422;2023-01-29T06:25:02;101763.13;;;2.74;85.73
24045;BME280;26257;49.442;8.422;2023-01-29T06:27:28;101765.69;;;2.87;83.45
24045;BME280;26257;49.442;8.422;2023-01-29T06:29:54;101757.59;;;2.55;83.67
24045;BME280;26257;49.442;8.422;2023-01-29T06:32:19;101763.13;;;2.74;84.49
24045;BME280;26257;49.442;8.422;2023-01-29T06:34:45;101756.03;;;2.44;85.61
24045;BME280;26257;49.442;8.422;2023-01-29T06:37:10;101759.00;;;2.63;86.67
24045;BME280;26257;49.442;8.422;2023-01-29T06:39:35;101746.84;;;2.50;86.22
24045;BME280;26257;49.442;8.422;2023-01-29T06:42:01;101745.19;;;2.38;86.63
24045;BME280;26257;49.442;8.422;2023-01-29T06:44:26;101750.81;;;2.44;85.83
24045;BME280;26257;49.442;8.422;2023-01-29T06:46:52;101744.69;;;2.43;84.96
24045;BME280;26257;49.442;8.422;2023-01-29T06:49:17;101740.41;;;2.59;84.82
24045;BME280;26257;49.442;8.422;2023-01-29T06:51:43;101739.91;;;2.64;83.28
24045;BME280;26257;49.442;8.422;2023-01-29T06:54:09;101747.41;;;2.73;82.72
24045;BME280;26257;49.442;8.422;2023-01-29T06:56:35;101732.22;;;2.80;81.56
24045;BME280;26257;49.442;8.422;2023-01-29T06:59:01;101744.06;;;2.75;81.66
24045;BME280;26257;49.442;8.422;2023-01-29T07:01:26;101747.00;;;2.39;84.01
24045;BME280;26257;49.442;8.422;2023-01-29T07:03:53;101756.75;;;2.28;87.09
24045;BME280;26257;49.442;8.422;2023-01-29T07:06:18;101748.22;;;2.31;87.12
24045;BME280;26257;49.442;8.422;2023-01-29T07:08:44;101758.66;;;2.31;86.49
24045;BME280;26257;49.442;8.422;2023-01-29T07:11:10;101759.84;;;2.36;88.33
24045;BME280;26257;49.442;8.422;2023-01-29T07:13:35;101763.00;;;2.17;87.63
24045;BME280;26257;49.442;8.422;2023-01-29T07:16:01;101764.66;;;2.30;87.89
24045;BME280;26257;49.442;8.422;2023-01-29T07:18:28;101761.13;;;2.42;86.33
24045;BME280;26257;49.442;8.422;2023-01-29T07:20:54;101753.81;;;2.50;85.75
24045;BME280;26257;49.442;8.422;2023-01-29T07:23:20;101749.44;;;2.64;85.55
24045;BME280;26257;49.442;8.422;2023-01-29T07:25:45;101750.06;;;2.60;85.52
24045;BME280;26257;49.442;8.422;2023-01-29T07:28:17;101757.84;;;2.45;85.15
24045;BME280;26257;49.442;8.422;2023-01-29T07:30:43;101763.69;;;2.28;86.56
24045;BME280;26257;49.442;8.422;2023-01-29T07:33:09;101751.38;;;2.53;86.93
24045;BME280;26257;49.442;8.422;2023-01-29T07:35:40;101747.59;;;2.76;84.76
24045;BME280;26257;49.442;8.422;2023-01-29T07:38:08;101757.56;;;2.68;84.15
24045;BME280;26257;49.442;8.422;2023-01-29T07:40:33;101757.41;;;2.52;84.86
24045;BME280;26257;49.442;8.422;2023-01-29T07:43:04;101758.50;;;2.83;82.44
24045;BME280;26257;49.442;8.422;2023-01-29T07:45:37;101763.97;;;2.73;82.05
24045;BME280;26257;49.442;8.422;2023-01-29T07:48:03;101758.88;;;2.89;82.27
24045;BME280;26257;49.442;8.422;2023-01-29T07:50:31;101771.44;;;2.54;82.57
24045;BME280;26257;49.442;8.422;2023-01-29T07:52:57;101781.50;;;2.35;84.96
24045;BME280;26257;49.442;8.422;2023-01-29T07:55:23;101770.13;;;2.61;84.76
24045;BME280;26257;49.442;8.422;2023-01-29T07:58:02;101781.59;;;2.49;85.29
24045;BME280;26257;49.442;8.422;2023-01-29T08:00:29;101787.06;;;2.67;85.28
24045;BME280;26257;49.442;8.422;2023-01-29T08:03:01;101788.75;;;2.39;87.84
24045;BME280;26257;49.442;8.422;2023-01-29T08:05:27;101800.34;;;2.57;85.37
24045;BME280;26257;49.442;8.422;2023-01-29T08:07:53;101792.28;;;2.67;84.51
24045;BME280;26257;49.442;8.422;2023-01-29T08:10:18;101794.06;;;2.81;83.08
24045;BME280;26257;49.442;8.422;2023-01-29T08:12:44;101794.69;;;3.20;81.58
24045;BME280;26257;49.442;8.422;2023-01-29T08:15:10;101793.63;;;2.88;81.13
24045;BME280;26257;49.442;8.422;2023-01-29T08:17:35;101788.59;;;2.91;80.98
24045;BME280;26257;49.442;8.422;2023-01-29T08:20:05;101795.69;;;2.66;81.23
24045;BME280;26257;49.442;8.422;2023-01-29T08:22:31;101780.00;;;3.22;80.01
24045;BME280;26257;49.442;8.422;2023-01-29T08:24:56;101790.28;;;3.33;79.37
24045;BME280;26257;49.442;8.422;2023-01-29T08:27:21;101805.28;;;2.80;77.90
24045;BME280;26257;49.442;8.422;2023-01-29T08:29:47;101796.97;;;2.73;79.42
24045;BME280;26257;49.442;8.422;2023-01-29T08:32:12;101790.31;;;3.05;77.10
24045;BME280;26257;49.442;8.422;2023-01-29T08:34:38;101780.22;;;3.54;75.37
24045;BME280;26257;49.442;8.422;2023-01-29T08:37:03;101789.56;;;3.36;75.72
24045;BME280;26257;49.442;8.422;2023-01-29T08:39:29;101796.22;;;3.60;75.31
24045;BME280;26257;49.442;8.422;2023-01-29T08:41:56;101782.19;;;3.87;75.36
24045;BME280;26257;49.442;8.422;2023-01-29T08:44:21;101783.53;;;4.41;70.18
24045;BME280;26257;49.442;8.422;2023-01-29T08:46:47;101789.00;;;4.00;72.14
24045;BME280;26257;49.442;8.422;2023-01-29T08:49:12;101807.41;;;3.87;68.06
24045;BME280;26257;49.442;8.422;2023-01-29T08:51:38;101803.78;;;4.14;67.21
24045;BME280;26257;49.442;8.422;2023-01-29T08:54:03;101814.78;;;4.08;65.69
24045;BME280;26257;49.442;8.422;2023-01-29T08:56:29;101811.81;;;4.48;66.43
24045;BME280;26257;49.442;8.422;2023-01-29T08:59:06;101809.91;;;5.24;61.95
24045;BME280;26257;49.442;8.422;2023-01-29T09:01:34;101798.44;;;5.22;61.44
24045;BME280;26257;49.442;8.422;2023-01-29T09:04:11;101770.13;;;5.15;59.26
24045;BME280;26257;49.442;8.422;2023-01-29T09:06:53;101761.31;;;4.97;59.73
24045;BME280;26257;49.442;8.422;2023-01-29T09:09:32;101737.56;;;4.62;59.87
24045;BME280;26257;49.442;8.422;2023-01-29T09:12:21;101741.56;;;4.39;60.43
24045;BME280;26257;49.442;8.422;2023-01-29T09:14:47;101729.31;;;4.54;61.48
24045;BME280;26257;49.442;8.422;2023-01-29T09:17:12;101731.97;;;4.23;63.21
24045;BME280;26257;49.442;8.422;2023-01-29T09:20:02;101725.25;;;4.28;65.19
24045;BME280;26257;49.442;8.422;2023-01-29T09:22:43;101726.44;;;4.50;64.39
24045;BME280;26257;49.442;8.422;2023-01-29T09:25:16;101723.84;;;4.66;64.67
24045;BME280;26257;49.442;8.422;2023-01-29T09:27:43;101729.47;;;5.06;62.85
24045;BME280;26257;49.442;8.422;2023-01-29T09:30:31;101737.59;;;5.61;60.63
24045;BME280;26257;49.442;8.422;2023-01-29T09:33:07;101752.03;;;5.87;56.35
24045;BME280;26257;49.442;8.422;2023-01-29T09:35:44;101752.16;;;5.73;56.69
24045;BME280;26257;49.442;8.422;2023-01-29T09:38:17;101752.81;;;6.57;54.45
24045;BME280;26257;49.442;8.422;2023-01-29T09:41:47;101741.66;;;6.43;53.78
24045;BME280;26257;49.442;8.422;2023-01-29T09:44:10;101752.34;;;5.93;55.91
24045;BME280;26257;49.442;8.422;2023-01-29T09:46:41;101757.50;;;6.83;53.92
24045;BME280;26257;49.442;8.422;2023-01-29T09:49:24;101771.03;;;6.54;52.51
24045;BME280;26257;49.442;8.422;2023-01-29T09:51:57;101763.34;;;7.14;51.46
24045;BME280;26257;49.442;8.422;2023-01-29T09:54:56;101756.50;;;8.42;48.39
24045;BME280;26257;49.442;8.422;2023-01-29T09:57:48;101759.16;;;8.00;48.97
24045;BME280;26257;49.442;8.422;2023-01-29T10:33:17;101779.88;;;4.08;64.79
24045;BME280;26257;49.442;8.422;2023-01-29T10:35:54;101768.75;;;5.06;61.45
24045;BME280;26257;49.442;8.422;2023-01-29T10:38:46;101772.91;;;5.34;57.41
24045;BME280;26257;49.442;8.422;2023-01-29T10:46:26;101755.63;;;5.55;56.67
24045;BME280;26257;49.442;8.422;2023-01-29T11:15:32;101705.72;;;7.00;51.37
24045;BME280;26257;49.442;8.422;2023-01-29T11:18:10;101697.13;;;7.43;50.39
24045;BME280;26257;49.442;8.422;2023-01-29T11:20:41;101695.13;;;7.38;50.34
24045;BME280;26257;49.442;8.422;2023-01-29T11:23:24;101684.63;;;7.79;48.71
24045;BME280;26257;49.442;8.422;2023-01-29T11:25:53;101692.69;;;8.49;48.06
24045;BME280;26257;49.442;8.422;2023-01-29T11:28:40;101685.47;;;9.40;46.11
24045;BME280;26257;49.442;8.422;2023-01-29T11:31:22;101680.22;;;8.91;45.91
24045;BME280;26257;49.442;8.422;2023-01-29T11:33:50;101670.06;;;9.01;44.42
24045;BME280;26257;49.442;8.422;2023-01-29T11:36:28;101665.72;;;10.07;43.60
24045;BME280;26257;49.442;8.422;2023-01-29T11:39:20;101655.56;;;9.66;42.89
24045;BME280;26257;49.442;8.422;2023-01-29T11:41:57;101643.38;;;10.52;41.93
24045;BME280;26257;49.442;8.422;2023-01-29T11:46:55;101629.88;;;10.73;39.75
24045;BME280;26257;49.442;8.422;2023-01-29T11:49:30;101619.00;;;10.63;40.48
24045;BME280;26257;49.442;8.422;2023-01-29T11:51:59;101617.59;;;11.41;39.21
24045;BME280;26257;49.442;8.422;2023-01-29T11:54:30;101608.00;;;11.82;37.64
24045;BME280;26257;49.442;8.422;2023-01-29T11:56:57;101602.63;;;12.56;37.37
24045;BME280;26257;49.442;8.422;2023-01-29T11:59:45;101589.78;;;13.24;36.15
24045;BME280;26257;49.442;8.422;2023-01-29T12:02:42;101582.38;;;13.57;35.47
24045;BME280;26257;49.442;8.422;2023-01-29T12:05:18;101575.53;;;13.71;34.51
24045;BME280;26257;49.442;8.422;2023-01-29T12:07:46;101577.03;;;14.15;33.92
24045;BME280;26257;49.442;8.422;2023-01-29T12:10:33;101577.66;;;13.39;34.43
24045;BME280;26257;49.442;8.422;2023-01-29T12:15:39;101569.97;;;12.59;36.05
24045;BME280;26257;49.442;8.422;2023-01-29T12:20:55;101562.63;;;12.90;35.10
24045;BME280;26257;49.442;8.422;2023-01-29T12:26:04;101561.28;;;11.12;38.43
24045;BME280;26257;49.442;8.422;2023-01-29T12:28:41;101554.13;;;11.78;37.54
24045;BME280;26257;49.442;8.422;2023-01-29T12:36:54;101539.19;;;11.44;37.92
24045;BME280;26257;49.442;8.422;2023-01-29T12:39:22;101545.66;;;11.58;37.54
24045;BME280;26257;49.442;8.422;2023-01-29T12:41:56;101535.44;;;12.12;36.66
24045;BME280;26257;49.442;8.422;2023-01-29T12:44:40;101548.81;;;11.78;37.60
24045;BME280;26257;49.442;8.422;2023-01-29T12:47:18;101547.78;;;11.71;37.10
24045;BME280;26257;49.442;8.422;2023-01-29T12:49:50;101544.50;;;11.46;37.81
24045;BME280;26257;49.442;8.422;2023-01-29T12:54:57;101542.50;;;12.55;36.39
24045;BME280;26257;49.442;8.422;2023-01-29T12:57:26;101534.25;;;12.86;35.79
24045;BME280;26257;49.442;8.422;2023-01-29T13:00:12;101538.16;;;11.03;38.68
24045;BME280;26257;49.442;8.422;2023-01-29T13:02:49;101527.16;;;10.87;39.40
24045;BME280;26257;49.442;8.422;2023-01-29T13:07:53;101505.59;;;12.67;36.61
24045;BME280;26257;49.442;8.422;2023-01-29T13:10:40;101497.69;;;13.20;34.92
24045;BME280;26257;49.442;8.422;2023-01-29T13:13:30;101496.97;;;12.77;35.10
24045;BME280;26257;49.442;8.422;2023-01-29T13:16:00;101514.81;;;11.98;36.89
24045;BME280;26257;49.442;8.422;2023-01-29T13:18:45;101511.94;;;11.86;36.84
24045;BME280;26257;49.442;8.422;2023-01-29T13:21:24;101505.22;;;12.46;35.55
24045;BME280;26257;49.442;8.422;2023-01-29T13:24:18;101501.72;;;10.92;37.66
24045;BME280;26257;49.442;8.422;2023-01-29T13:26:46;101502.16;;;10.41;38.94
24045;BME280;26257;49.442;8.422;2023-01-29T13:29:23;101490.94;;;10.50;39.97
24045;BME280;26257;49.442;8.422;2023-01-29T13:32:08;101488.34;;;9.62;41.76
24045;BME280;26257;49.442;8.422;2023-01-29T13:34:42;101482.72;;;10.39;41.09
24045;BME280;26257;49.442;8.422;2023-01-29T13:37:11;101468.06;;;12.43;37.27
24045;BME280;26257;49.442;8.422;2023-01-29T13:39:49;101473.06;;;11.47;38.43
24045;BME280;26257;49.442;8.422;2023-01-29T13:42:18;101474.69;;;11.39;39.07
24045;BME280;26257;49.442;8.422;2023-01-29T13:44:56;101478.13;;;11.37;39.52
24045;BME280;26257;49.442;8.422;2023-01-29T13:47:29;101464.97;;;13.19;36.21
24045;BME280;26257;49.442;8.422;2023-01-29T13:50:32;101471.16;;;13.20;35.04
24045;BME280;26257;49.442;8.422;2023-01-29T13:53:02;101474.28;;;12.45;36.25
24045;BME280;26257;49.442;8.422;2023-01-29T13:55:34;101472.91;;;11.77;37.40
24045;BME280;26257;49.442;8.422;2023-01-29T14:00:48;101461.56;;;11.83;37.78
24045;BME280;26257;49.442;8.422;2023-01-29T14:10:40;101444.25;;;9.57;43.29
24045;BME280;26257;49.442;8.422;2023-01-29T14:16:32;101443.16;;;10.77;39.87
24045;BME280;26257;49.442;8.422;2023-01-29T14:18:29;101442.44;;;9.56;42.25
24045;BME280;26257;49.442;8.422;2023-01-29T14:21:00;101444.44;;;9.94;41.79
24045;BME280;26257;49.442;8.422;2023-01-29T14:23:46;101442.31;;;9.81;43.84
24045;BME280;26257;49.442;8.422;2023-01-29T14:26:31;101445.47;;;9.11;43.51
24045;BME280;26257;49.442;8.422;2023-01-29T14:32:19;101443.13;;;9.49;43.62
24045;BME280;26257;49.442;8.422;2023-01-29T14:34:50;101446.88;;;10.16;41.74
24045;BME280;26257;49.442;8.422;2023-01-29T14:37:29;101439.09;;;10.89;40.23
24045;BME280;26257;49.442;8.422;2023-01-29T14:40:45;101433.66;;;11.59;39.18
24045;BME280;26257;49.442;8.422;2023-01-29T14:47:00;101426.25;;;12.28;38.09
24045;BME280;26257;49.442;8.422;2023-01-29T14:49:56;101434.34;;;12.36;37.10
24045;BME280;26257;49.442;8.422;2023-01-29T14:52:44;101420.31;;;12.40;37.36
24045;BME280;26257;49.442;8.422;2023-01-29T14:57:48;101414.91;;;12.88;35.93
24045;BME280;26257;49.442;8.422;2023-01-29T15:00:26;101422.75;;;12.79;36.19
24045;BME280;26257;49.442;8.422;2023-01-29T15:02:54;101424.47;;;11.83;37.51
24045;BME280;26257;49.442;8.422;2023-01-29T15:05:42;101425.59;;;12.40;37.04
24045;BME280;26257;49.442;8.422;2023-01-29T15:08:27;101421.34;;;12.48;36.66
24045;BME280;26257;49.442;8.422;2023-01-29T15:11:01;101426.25;;;11.84;37.92
24045;BME280;26257;49.442;8.422;2023-01-29T15:16:19;101430.91;;;11.95;38.22
24045;BME280;26257;49.442;8.422;2023-01-29T15:18:54;101432.84;;;11.63;38.35
24045;BME280;26257;49.442;8.422;2023-01-29T15:24:26;101430.63;;;11.41;39.17
24045;BME280;26257;49.442;8.422;2023-01-29T15:26:52;101426.56;;;11.18;39.89
24045;BME280;26257;49.442;8.422;2023-01-29T15:29:23;101421.91;;;11.08;39.99
24045;BME280;26257;49.442;8.422;2023-01-29T15:31:50;101426.38;;;10.40;40.87
24045;BME280;26257;49.442;8.422;2023-01-29T15:34:16;101436.00;;;10.07;41.86
24045;BME280;26257;49.442;8.422;2023-01-29T15:36:44;101431.31;;;9.96;42.53
24045;BME280;26257;49.442;8.422;2023-01-29T15:41:37;101440.28;;;10.33;41.31
24045;BME280;26257;49.442;8.422;2023-01-29T15:44:12;101440.09;;;9.37;43.16
24045;BME280;26257;49.442;8.422;2023-01-29T15:46:41;101444.06;;;9.22;44.00
24045;BME280;26257;49.442;8.422;2023-01-29T15:49:13;101436.41;;;9.03;44.11
24045;BME280;26257;49.442;8.422;2023-01-29T15:51:42;101440.16;;;8.83;44.99
24045;BME280;26257;49.442;8.422;2023-01-29T15:54:13;101439.56;;;8.65;46.08
24045;BME280;26257;49.442;8.422;2023-01-29T15:56:44;101434.88;;;8.83;45.75
24045;BME280;26257;49.442;8.422;2023-01-29T15:59:18;101434.38;;;8.43;46.52
24045;BME280;26257;49.442;8.422;2023-01-29T16:01:45;101435.66;;;8.05;47.61
24045;BME280;26257;49.442;8.422;2023-01-29T16:04:14;101429.91;;;7.91;48.44
24045;BME280;26257;49.442;8.422;2023-01-29T16:06:41;101413.72;;;7.57;49.35
24045;BME280;26257;49.442;8.422;2023-01-29T16:09:15;101413.16;;;7.20;50.33
24045;BME280;26257;49.442;8.422;2023-01-29T16:11:42;101410.38;;;6.93;51.20
24045;BME280;26257;49.442;8.422;2023-01-29T16:14:20;101405.22;;;6.33;53.65
24045;BME280;26257;49.442;8.422;2023-01-29T16:16:49;101410.00;;;6.01;54.63
24045;BME280;26257;49.442;8.422;2023-01-29T16:19:27;101400.13;;;5.77;56.79
24045;BME280;26257;49.442;8.422;2023-01-29T16:22:01;101407.16;;;5.58;57.83